Latest Weather Observations for Goulburn Airport

IDN60901

Issued at 9:15 pm EST Saturday 26 July 2014 (issued every 10 minutes, with the page automatically refreshed every 10 minutes)

About weather observations | Map of Canberra area stations | Latest observations for Canberra area | Other Formats
Station Details ID: 070330 Name: GOULBURN AIRPORT AWS Lat: -34.81 Lon: 149.73 Height: 640.0 m
Data from the previous 72 hours. | See also: Recent months at Goulburn Airport
Date/Time
EST
Tmp

°C
App
Tmp
°C
Dew
Point
°C
Rel
Hum
%
Delta-T

°C
Wind Press
QNH
hPa
Press
MSL
hPa
Rain
since
9 am
mm
Dir
 
Spd
km/h
Gust
km/h
Spd
kts
Gust
kts
26/09:00pm 6.9 1.3 5.2 89 0.8 W 24 30 13 16 1023.9 1025.1 0.0
26/08:30pm 7.4 2.8 5.4 87 0.9 W 19 26 10 14 1024.0 - 0.0
26/08:00pm 7.3 2.6 5.3 87 0.9 W 19 22 10 12 1024.0 - 0.0
26/07:30pm 7.5 2.8 5.3 86 1.0 WNW 19 26 10 14 1023.7 - 0.0
26/07:00pm 7.6 2.3 5.2 85 1.1 WNW 22 30 12 16 1023.6 - 0.0
26/06:30pm 7.8 2.5 5.1 83 1.2 WNW 22 28 12 15 1023.5 - 0.0
26/06:00pm 8.7 1.6 5.4 80 1.5 W 32 41 17 22 1023.1 1024.4 0.0
26/05:30pm 9.2 4.6 5.8 79 1.6 WNW 19 24 10 13 1022.7 - 0.0
26/05:00pm 9.9 6.4 5.3 73 2.2 W 13 20 7 11 1022.5 - 0.0
26/04:30pm 11.5 5.5 5.4 66 2.9 W 26 33 14 18 1022.2 - 0.0
26/04:00pm 12.3 5.9 5.2 62 3.4 W 28 35 15 19 1022.0 - 0.0
26/03:30pm 12.5 5.7 5.2 61 3.5 W 30 37 16 20 1021.8 - 0.0
26/03:00pm 13.2 6.6 5.9 61 3.6 W 30 39 16 21 1021.7 1022.9 0.0
26/02:30pm 11.1 5.2 6.0 71 2.5 WSW 26 35 14 19 1021.4 - 0.0
26/02:00pm 13.0 6.1 4.7 57 4.0 WSW 30 43 16 23 1021.7 - 0.0
26/01:30pm 13.6 6.3 4.7 55 4.3 W 32 43 17 23 1021.7 - 0.0
26/01:00pm 13.8 6.7 5.7 58 4.0 WNW 32 43 17 23 1021.7 - 0.0
26/12:30pm 13.5 8.0 6.1 61 3.6 W 24 32 13 17 1022.2 - 0.0
26/12:00pm 13.0 7.4 5.4 60 3.7 W 24 30 13 16 1022.8 1024.1 0.0
26/11:30am 12.9 7.3 5.6 61 3.5 W 24 33 13 18 1023.5 - 0.0
26/11:00am 12.3 7.8 7.0 70 2.6 W 20 28 11 15 1023.9 - 0.0
26/10:30am 11.8 7.9 7.1 73 2.3 WNW 17 26 9 14 1024.2 - 0.0
26/10:00am 11.2 7.1 7.9 80 1.7 NW 19 22 10 12 1024.3 - 0.0
26/09:30am 9.9 7.3 9.4 97 0.3 NW 13 17 7 9 1024.3 - 0.0
26/09:00am 7.5 5.6 7.4 99 0.0 N 7 9 4 5 1023.9 1025.1 0.8
26/08:30am 5.7 3.9 5.6 99 0.0 N 4 7 2 4 1024.0 - 0.8
26/08:11am 4.5 2.9 4.4 99 0.0 NE 2 6 1 3 1023.9 - 0.8
26/08:00am 4.3 3.0 4.2 99 0.0 CALM 0 0 0 0 1023.9 - 0.8
26/07:55am 4.2 2.9 4.1 99 0.0 CALM 0 0 0 0 1024.1 - 0.8
26/07:30am 3.8 2.4 3.7 99 0.0 CALM 0 2 0 1 1023.7 - 0.8
26/07:00am 3.7 1.5 3.6 99 0.0 E 4 7 2 4 1023.8 - 0.8
26/06:46am 3.7 1.0 3.6 99 0.0 N 7 9 4 5 1023.8 - 0.8
26/06:44am 3.7 1.2 3.6 99 0.0 NNW 6 9 3 5 1023.8 - 0.8
26/06:30am 3.6 2.2 3.5 99 0.0 CALM 0 0 0 0 1023.3 - 0.8
26/06:00am 4.2 1.8 4.1 99 0.0 S 6 7 3 4 1023.0 1024.3 0.8
26/05:30am 4.6 2.2 4.5 99 0.0 N 6 6 3 3 1022.9 - 0.8
26/05:00am 5.5 2.4 5.4 99 0.0 N 11 13 6 7 1023.0 - 0.8
26/04:30am 3.9 1.4 3.6 98 0.1 N 6 7 3 4 1022.6 - 0.8
26/04:00am 3.3 0.5 3.0 98 0.1 ESE 7 9 4 5 1022.7 - 0.8
26/03:30am 3.6 1.0 3.3 98 0.1 S 6 9 3 5 1022.4 - 0.8
26/03:00am 3.8 2.4 3.5 98 0.1 CALM 0 0 0 0 1022.8 1024.1 0.8
26/02:30am 3.9 2.5 3.6 98 0.1 CALM 0 0 0 0 1022.9 - 0.8
26/02:00am 2.4 -0.4 1.8 96 0.2 SE 6 7 3 4 1023.3 - 0.8
26/01:30am 2.8 1.1 2.1 95 0.3 CALM 0 0 0 0 1023.1 - 0.8
26/01:08am 3.7 2.2 3.1 96 0.3 CALM 0 0 0 0 1023.0 - 0.8
26/01:00am 4.0 2.2 3.3 95 0.3 ENE 2 7 1 4 1023.0 - 0.8
26/12:30am 4.1 0.9 3.1 93 0.4 W 9 11 5 6 1023.3 - 0.8
26/12:00am 6.6 3.2 5.7 94 0.4 W 13 15 7 8 1023.3 1024.5 0.8
 
Date/Time
EST
Tmp

°C
App
Tmp
°C
Dew
Point
°C
Rel
Hum
%
Delta-T

°C
Wind Press
QNH
hPa
Press
MSL
hPa
Rain
since
9 am
mm
Dir
 
Spd
km/h
Gust
km/h
Spd
kts
Gust
kts
25/11:30pm 7.5 3.9 6.9 96 0.3 NW 15 15 8 8 1023.5 - 0.8
25/11:00pm 7.4 3.8 6.8 96 0.3 NW 15 17 8 9 1023.3 - 0.8
25/10:30pm 8.2 6.0 7.9 98 0.1 NW 9 13 5 7 1023.0 - 0.8
25/10:00pm 7.4 4.6 7.0 97 0.2 WNW 11 15 6 8 1023.1 - 0.4
25/09:30pm 5.5 3.0 4.9 96 0.3 NNW 7 9 4 5 1022.7 - 0.2
25/09:00pm 6.4 3.0 6.0 97 0.2 NNW 13 15 7 8 1022.4 1023.6 0.2
25/08:30pm 4.4 1.7 3.5 94 0.4 WNW 7 9 4 5 1022.4 - 0.2
25/08:00pm 4.7 2.2 3.5 92 0.5 NNW 6 9 3 5 1022.3 - 0.2
25/07:30pm 5.3 3.9 3.8 90 0.7 CALM 0 0 0 0 1022.2 - 0.2
25/07:00pm 6.0 4.6 3.8 86 1.0 CALM 0 0 0 0 1022.0 - 0.2
25/06:30pm 8.3 6.2 5.9 85 1.1 WNW 6 7 3 4 1021.7 - 0.2
25/06:00pm 9.9 6.6 6.6 80 1.6 NW 13 15 7 8 1021.2 1022.4 0.2
25/05:30pm 10.8 6.9 6.9 77 1.9 NW 17 22 9 12 1021.0 - 0.2
25/05:00pm 12.5 6.9 7.2 70 2.7 NW 26 37 14 20 1020.7 - 0.2
25/04:30pm 13.3 8.2 7.5 68 2.9 WNW 24 32 13 17 1020.2 - 0.2
25/04:00pm 14.1 8.6 7.4 64 3.4 NW 26 35 14 19 1019.8 - 0.2
25/03:30pm 14.6 8.7 7.6 63 3.6 NW 28 35 15 19 1019.7 - 0.2
25/03:00pm 14.8 7.9 7.4 61 3.8 NW 33 44 18 24 1019.7 1020.9 0.2
25/02:30pm 15.6 9.6 8.6 63 3.7 WNW 30 41 16 22 1019.8 - 0.2
25/02:00pm 14.6 7.7 7.4 62 3.7 WNW 33 43 18 23 1019.6 - 0.2
25/01:30pm 15.6 9.4 7.9 60 4.0 NW 30 43 16 23 1019.5 - 0.2
25/01:00pm 16.1 8.9 7.6 57 4.4 NW 35 44 19 24 1019.6 - 0.2
25/12:30pm 15.6 8.4 7.6 59 4.1 WNW 35 48 19 26 1020.1 - 0.2
25/12:00pm 14.6 7.8 7.6 63 3.6 NW 33 43 18 23 1020.6 1021.8 0.2
25/11:30am 15.3 9.1 7.8 61 3.9 NW 30 39 16 21 1020.9 - 0.2
25/11:00am 14.9 8.3 7.9 63 3.6 NNW 32 41 17 22 1021.3 - 0.2
25/10:30am 14.5 8.0 8.0 65 3.4 NNW 32 43 17 23 1021.1 - 0.2
25/10:00am 13.5 6.9 7.7 68 3.0 NNW 32 41 17 22 1021.4 - 0.0
25/09:30am 12.8 8.0 8.7 76 2.1 NNW 24 30 13 16 1021.4 - 0.0
25/09:27am 12.3 8.4 9.5 83 1.5 NNW 20 28 11 15 1021.4 - 0.0
25/09:00am 6.7 5.1 6.3 97 0.2 NE 4 7 2 4 1021.3 1022.5 0.0
25/08:30am 2.7 1.1 2.4 98 0.1 CALM 0 0 0 0 1021.2 - 0.0
25/08:00am 0.2 -1.8 -0.1 98 0.1 CALM 0 0 0 0 1021.1 - 0.0
25/07:30am -1.2 -3.4 -1.6 97 0.1 CALM 0 0 0 0 1020.9 - 0.0
25/07:15am -1.9 -4.2 -2.3 97 0.1 CALM 0 0 0 0 1020.5 - 0.0
25/07:00am -1.5 -3.7 -1.9 97 0.1 CALM 0 2 0 1 1020.3 - 0.0
25/06:30am -1.7 -5.1 -2.1 97 0.1 SE 6 7 3 4 1020.1 - 0.0
25/06:00am -1.9 -4.2 -2.3 97 0.1 CALM 0 6 0 3 1019.8 1021.0 0.0
25/05:30am -1.5 -3.7 -1.9 97 0.1 CALM 0 0 0 0 1019.3 - 0.0
25/05:00am -1.5 -3.7 -1.9 97 0.1 CALM 0 0 0 0 1019.4 - 0.0
25/04:30am -1.2 -3.4 -1.6 97 0.1 CALM 0 0 0 0 1019.2 - 0.0
25/04:00am -1.1 -4.4 -1.5 97 0.1 S 6 7 3 4 1019.2 - 0.0
25/03:30am -1.3 -3.5 -1.7 97 0.1 CALM 0 0 0 0 1019.1 - 0.0
25/03:00am -1.0 -3.2 -1.6 96 0.2 CALM 0 0 0 0 1019.3 1020.5 0.0
25/02:50am -1.1 -3.3 -1.7 96 0.2 CALM 0 0 0 0 1019.3 - 0.0
25/02:30am -0.3 -2.4 -0.7 97 0.1 CALM 0 0 0 0 1019.4 - 0.0
25/02:16am -0.4 -2.5 -1.0 96 0.2 CALM 0 0 0 0 1019.4 - 0.0
25/02:00am -0.9 -3.1 -1.5 96 0.2 CALM 0 4 0 2 1019.5 - 0.0
25/01:39am -0.1 -3.3 -0.7 96 0.2 SSE 6 7 3 4 1019.5 - 0.0
25/01:30am 0.1 -3.1 -0.5 96 0.2 SE 6 7 3 4 1019.4 - 0.0
25/01:00am 0.2 -1.9 -0.5 95 0.3 CALM 0 0 0 0 1019.4 - 0.0
25/12:30am 0.6 -2.5 -0.1 95 0.3 WSW 6 9 3 5 1019.5 - 0.0
25/12:00am 1.8 -0.4 0.8 93 0.4 WNW 2 7 1 4 1019.7 1020.9 0.0
 
Date/Time
EST
Tmp

°C
App
Tmp
°C
Dew
Point
°C
Rel
Hum
%
Delta-T

°C
Wind Press
QNH
hPa
Press
MSL
hPa
Rain
since
9 am
mm
Dir
 
Spd
km/h
Gust
km/h
Spd
kts
Gust
kts
24/11:30pm 2.9 1.2 2.0 94 0.4 CALM 0 0 0 0 1020.0 - 0.0
24/11:00pm 4.0 1.2 3.1 94 0.4 SW 7 11 4 6 1020.4 - 0.0
24/10:30pm 4.6 1.9 3.7 94 0.4 ESE 7 11 4 6 1020.3 - 0.0
24/10:00pm 4.4 3.0 3.5 94 0.4 CALM 0 0 0 0 1020.4 - 0.0
24/09:30pm 4.0 2.5 3.0 93 0.4 CALM 0 0 0 0 1020.4 - 0.0
24/09:00pm 3.7 2.1 2.4 91 0.5 CALM 0 0 0 0 1020.2 1021.4 0.0
24/08:30pm 4.2 1.5 2.9 91 0.6 WSW 6 9 3 5 1020.1 - 0.0
24/08:00pm 4.3 2.0 3.0 91 0.6 SW 4 7 2 4 1019.8 - 0.0
24/07:30pm 4.0 0.7 2.2 88 0.7 SE 9 11 5 6 1019.5 - 0.0
24/07:00pm 5.6 2.9 2.6 81 1.3 N 6 7 3 4 1019.2 - 0.0
24/06:30pm 7.6 4.9 3.5 75 1.8 NNE 7 9 4 5 1019.0 - 0.0
24/06:00pm 8.6 5.9 3.8 72 2.2 N 7 9 4 5 1018.9 1020.1 0.0
24/05:30pm 9.7 7.0 3.7 66 2.7 NNE 7 11 4 6 1018.5 - 0.0
24/05:00pm 11.3 7.2 4.3 62 3.3 N 15 19 8 10 1018.5 - 0.0
24/04:30pm 12.4 8.3 4.1 57 3.9 N 15 19 8 10 1018.5 - 0.0
24/04:00pm 13.4 8.3 3.2 50 4.7 N 19 22 10 12 1018.1 - 0.0
24/03:30pm 13.6 9.2 2.8 48 5.0 NNW 15 19 8 10 1017.9 - 0.0
24/03:00pm 13.3 9.4 3.4 51 4.6 N 13 17 7 9 1017.8 1019.0 0.0
24/02:30pm 13.4 8.1 2.9 49 4.8 N 20 24 11 13 1017.7 - 0.0
24/02:00pm 14.7 10.1 3.8 48 5.2 NNW 17 20 9 11 1018.0 - 0.0
24/01:30pm 13.4 9.2 5.8 60 3.7 N 17 22 9 12 1018.6 - 0.0
24/01:00pm 12.7 8.5 5.6 62 3.4 N 17 24 9 13 1019.2 - 0.0
24/12:30pm 12.6 8.5 6.2 65 3.1 N 17 22 9 12 1019.6 - 0.0
24/12:00pm 10.4 9.1 7.6 83 1.4 NW 4 7 2 4 1020.2 1021.4 0.0
24/11:30am 7.9 7.2 7.0 94 0.4 CALM 0 0 0 0 1020.8 - 0.0
24/11:00am 6.9 6.2 6.8 99 0.0 CALM 0 0 0 0 1021.2 - 0.0
24/10:30am 5.7 3.6 5.6 99 0.0 SW 6 7 3 4 1021.5 - 0.0
24/10:25am 5.4 3.2 5.3 99 0.0 SW 6 7 3 4 1021.5 - 0.0
24/10:00am 4.7 3.5 4.6 99 0.0 CALM 0 0 0 0 1021.8 - 0.0
24/09:30am 4.4 2.0 4.3 99 0.0 ESE 6 9 3 5 1021.8 - 0.0
24/09:00am 3.3 1.8 3.2 99 0.0 CALM 0 0 0 0 1021.8 1023.0 0.0
24/08:30am 2.4 -0.4 2.3 99 0.0 WNW 6 7 3 4 1021.7 - 0.0
24/08:00am 1.2 -0.6 0.9 98 0.1 CALM 0 6 0 3 1021.0 - 0.0
24/07:30am 0.7 -1.2 0.4 98 0.1 CALM 0 0 0 0 1020.8 - 0.0
24/07:00am 0.5 -1.5 0.2 98 0.1 CALM 0 0 0 0 1021.1 - 0.0
24/06:30am 0.2 -1.8 -0.1 98 0.1 CALM 0 0 0 0 1021.2 - 0.0
24/06:00am -0.1 -2.1 -0.4 98 0.1 CALM 0 0 0 0 1021.0 1022.2 0.0
24/05:30am -0.2 -2.3 -0.5 98 0.1 CALM 0 0 0 0 1020.8 - 0.0
24/05:00am -0.4 -2.5 -0.7 98 0.1 CALM 0 0 0 0 1020.5 - 0.0
24/04:30am -0.4 -2.5 -0.8 97 0.1 CALM 0 0 0 0 1020.4 - 0.0
24/04:00am -0.6 -3.1 -1.0 97 0.1 SSW 2 7 1 4 1020.3 - 0.0
24/03:30am -0.9 -3.1 -1.3 97 0.1 CALM 0 0 0 0 1020.1 - 0.0
24/03:00am -1.3 -3.5 -1.7 97 0.1 CALM 0 0 0 0 1020.5 1021.7 0.0
24/02:30am -1.3 -3.5 -1.9 96 0.2 CALM 0 0 0 0 1020.8 - 0.0
24/02:00am -1.3 -3.5 -1.9 96 0.2 CALM 0 0 0 0 1020.9 - 0.0
24/01:30am -1.7 -4.0 -2.3 96 0.1 CALM 0 0 0 0 1021.1 - 0.0
24/01:07am -1.7 -4.8 -2.3 96 0.1 S 4 7 2 4 1021.2 - 0.0
24/01:00am -1.5 -4.9 -2.1 96 0.1 S 6 7 3 4 1021.1 - 0.0
24/12:36am -1.3 -3.5 -1.9 96 0.2 CALM 0 0 0 0 1021.3 - 0.0
24/12:30am -1.5 -3.8 -2.1 96 0.1 CALM 0 0 0 0 1021.4 - 0.0
24/12:02am -1.3 -3.6 -2.0 95 0.2 CALM 0 0 0 0 1021.8 - 0.0
24/12:00am -1.3 -3.6 -2.0 95 0.2 CALM 0 0 0 0 1021.8 1023.0 0.0
 
Date/Time
EST
Tmp

°C
App
Tmp
°C
Dew
Point
°C
Rel
Hum
%
Delta-T

°C
Wind Press
QNH
hPa
Press
MSL
hPa
Rain
since
9 am
mm
Dir
 
Spd
km/h
Gust
km/h
Spd
kts
Gust
kts
23/11:30pm -1.1 -3.3 -1.8 95 0.2 CALM 0 0 0 0 1022.1 - 0.0
23/11:00pm -1.4 -3.7 -2.2 94 0.2 CALM 0 0 0 0 1022.4 - 0.0
23/10:30pm -0.3 -2.4 -1.1 94 0.3 CALM 0 0 0 0 1022.5 - 0.0
23/10:00pm 1.0 -0.9 0.3 95 0.3 CALM 0 0 0 0 1022.6 - 0.0
23/09:30pm 0.9 -1.1 0.0 94 0.3 CALM 0 0 0 0 1022.6 - 0.0

Latest Capital City Observations: Canberra | Sydney | Melbourne | Brisbane | Adelaide | Perth | Hobart | Darwin

Other Formats:

Comma delimited format used in spreadsheet applications
http://www.bom.gov.au/fwo/IDN60903/IDN60903.95716.axf

JavaScript Object Notation format (JSON) in row-major order
http://www.bom.gov.au/fwo/IDN60903/IDN60903.95716.json